createdAt,value
2023-02-05T00:01:41.366Z,10.70
2023-02-05T00:04:08.428Z,10.60
2023-02-05T00:06:35.041Z,10.50
2023-02-05T00:09:03.745Z,10.40
2023-02-05T00:11:30.834Z,10.40
2023-02-05T00:13:58.650Z,10.40
2023-02-05T00:16:25.926Z,10.40
2023-02-05T00:18:52.996Z,10.20
2023-02-05T00:21:20.641Z,10.10
2023-02-05T00:23:48.302Z,10.10
2023-02-05T00:26:16.174Z,9.80
2023-02-05T00:28:43.038Z,9.60
2023-02-05T00:31:11.155Z,9.50
2023-02-05T00:33:38.246Z,9.30
2023-02-05T00:36:05.240Z,9.30
2023-02-05T00:38:32.285Z,9.20
2023-02-05T00:40:59.203Z,9.30
2023-02-05T00:43:26.121Z,9.40
2023-02-05T00:45:53.183Z,9.40
2023-02-05T00:48:20.345Z,9.40
2023-02-05T00:50:50.975Z,9.50
2023-02-05T00:53:18.064Z,9.50
2023-02-05T00:55:45.252Z,9.50
2023-02-05T00:58:12.080Z,9.40
2023-02-05T01:00:39.131Z,9.40
2023-02-05T01:03:06.223Z,9.30
2023-02-05T01:05:37.003Z,9.40
2023-02-05T01:08:05.519Z,9.40
2023-02-05T01:10:32.619Z,9.30
2023-02-05T01:12:59.310Z,9.20
2023-02-05T01:15:26.395Z,9.30
2023-02-05T01:17:53.382Z,9.30
2023-02-05T01:20:21.830Z,9.50
2023-02-05T01:22:49.334Z,9.50
2023-02-05T01:25:16.362Z,9.60
2023-02-05T01:27:43.381Z,9.80
2023-02-05T01:30:11.899Z,9.90
2023-02-05T01:32:39.139Z,10.00
2023-02-05T01:35:06.201Z,9.80
2023-02-05T01:37:33.871Z,9.70
2023-02-05T01:40:00.498Z,9.80
2023-02-05T01:42:29.045Z,9.80
2023-02-05T01:45:15.477Z,9.90
2023-02-05T01:47:43.355Z,9.90
2023-02-05T01:50:11.600Z,10.00
2023-02-05T01:52:38.335Z,10.10
2023-02-05T01:55:06.002Z,10.20
2023-02-05T01:57:32.887Z,10.20
2023-02-05T01:59:59.999Z,10.20
2023-02-05T02:02:26.893Z,10.20
2023-02-05T02:04:57.001Z,10.30
2023-02-05T02:07:24.686Z,10.20
2023-02-05T02:09:53.535Z,10.20
2023-02-05T02:12:26.371Z,10.20
2023-02-05T02:14:56.806Z,10.10
2023-02-05T02:17:23.796Z,10.10
2023-02-05T02:19:50.499Z,10.10
2023-02-05T02:22:26.598Z,10.20
2023-02-05T02:25:13.425Z,10.10
2023-02-05T02:28:02.744Z,10.10
2023-02-05T02:30:33.151Z,10.20
2023-02-05T02:33:05.224Z,10.10
2023-02-05T02:35:50.944Z,10.20
2023-02-05T02:38:34.808Z,10.10
2023-02-05T02:41:08.500Z,10.10
2023-02-05T02:43:43.913Z,10.10
2023-02-05T02:46:16.031Z,10.20
2023-02-05T02:48:45.140Z,9.90
2023-02-05T02:51:15.870Z,9.90
2023-02-05T02:53:45.168Z,9.90
2023-02-05T02:56:12.964Z,9.90
2023-02-05T02:58:42.555Z,9.90
2023-02-05T03:01:10.231Z,10.00
2023-02-05T03:03:40.821Z,10.10
2023-02-05T03:06:09.943Z,10.10
2023-02-05T03:08:40.212Z,10.00
2023-02-05T03:11:11.304Z,10.00
2023-02-05T03:13:38.309Z,10.00
2023-02-05T03:16:05.792Z,10.00
2023-02-05T03:18:32.805Z,10.10
2023-02-05T03:21:03.088Z,10.10
2023-02-05T03:23:30.159Z,10.10
2023-02-05T03:25:57.163Z,10.00
2023-02-05T03:28:24.363Z,10.00
2023-02-05T03:31:03.954Z,9.90
2023-02-05T03:33:38.934Z,9.80
2023-02-05T03:36:05.832Z,9.80
2023-02-05T03:39:11.167Z,9.90
2023-02-05T03:41:58.570Z,9.80
2023-02-05T03:44:40.696Z,9.80
2023-02-05T03:47:19.605Z,9.70
2023-02-05T03:49:57.667Z,9.50
2023-02-05T03:52:32.722Z,9.50
2023-02-05T03:55:09.874Z,9.50
2023-02-05T03:57:42.667Z,9.70
2023-02-05T04:00:09.895Z,9.70
2023-02-05T04:02:38.313Z,9.70
2023-02-05T04:05:05.511Z,9.70
2023-02-05T04:07:32.471Z,9.70
2023-02-05T04:09:59.511Z,9.70
2023-02-05T04:12:28.250Z,9.70
2023-02-05T04:14:55.256Z,9.60
2023-02-05T04:17:22.304Z,9.40
2023-02-05T04:19:49.219Z,9.40
2023-02-05T04:22:15.989Z,9.50
2023-02-05T04:24:43.844Z,9.60
2023-02-05T04:27:10.568Z,9.70
2023-02-05T04:29:37.565Z,9.60
2023-02-05T04:32:04.618Z,9.50
2023-02-05T04:34:32.484Z,9.50
2023-02-05T04:36:59.545Z,9.50
2023-02-05T04:39:26.556Z,9.60
2023-02-05T04:41:55.240Z,9.80
2023-02-05T04:44:22.270Z,9.80
2023-02-05T04:46:49.004Z,9.90
2023-02-05T04:49:15.936Z,9.90
2023-02-05T04:51:42.602Z,9.90
2023-02-05T04:54:10.500Z,9.90
2023-02-05T04:56:38.490Z,9.70
2023-02-05T04:59:05.434Z,9.80
2023-02-05T05:01:32.460Z,9.80
2023-02-05T05:04:00.348Z,9.70
2023-02-05T05:06:27.451Z,9.70
2023-02-05T05:08:54.482Z,9.70
2023-02-05T05:11:22.152Z,9.80
2023-02-05T05:13:52.151Z,9.70
2023-02-05T05:16:19.136Z,9.70
2023-02-05T05:18:45.913Z,9.60
2023-02-05T05:21:12.757Z,9.50
2023-02-05T05:23:40.791Z,9.30
2023-02-05T05:26:09.793Z,9.20
2023-02-05T05:28:36.796Z,9.20
2023-02-05T05:31:11.260Z,9.20
2023-02-05T05:33:38.178Z,9.10
2023-02-05T05:36:05.760Z,9.10
2023-02-05T05:38:32.594Z,9.20
2023-02-05T05:41:19.019Z,9.20
2023-02-05T05:43:49.018Z,9.20
2023-02-05T05:46:21.952Z,9.20
2023-02-05T05:48:52.527Z,9.10
2023-02-05T05:51:21.857Z,9.10
2023-02-05T05:53:49.089Z,9.20
2023-02-05T05:56:16.509Z,9.10
2023-02-05T05:58:44.769Z,9.20
2023-02-05T06:01:12.123Z,9.30
2023-02-05T06:03:41.943Z,9.40
2023-02-05T06:06:10.646Z,9.40
2023-02-05T06:08:37.669Z,9.40
2023-02-05T06:11:05.538Z,9.20
2023-02-05T06:13:37.988Z,9.20
2023-02-05T06:16:05.124Z,9.30
2023-02-05T06:18:34.053Z,9.20
2023-02-05T06:21:02.224Z,9.20
2023-02-05T06:23:29.145Z,9.20
2023-02-05T06:25:55.997Z,9.00
2023-02-05T06:28:23.166Z,8.90
2023-02-05T06:30:49.832Z,8.80
2023-02-05T06:33:16.785Z,8.50
2023-02-05T06:35:43.745Z,8.30
2023-02-05T06:38:10.406Z,8.10
2023-02-05T06:40:38.273Z,7.80
2023-02-05T06:43:06.975Z,7.70
2023-02-05T06:45:34.204Z,7.50
2023-02-05T06:48:01.058Z,7.40
2023-02-05T06:50:27.840Z,7.30
2023-02-05T06:52:54.792Z,7.30
2023-02-05T06:55:21.900Z,7.30
2023-02-05T06:57:50.948Z,7.30
2023-02-05T07:02:46.380Z,7.40
2023-02-05T07:05:13.280Z,7.40
2023-02-05T07:07:40.449Z,7.20
2023-02-05T07:10:08.278Z,7.10
2023-02-05T07:12:35.279Z,7.00
2023-02-05T07:15:02.310Z,6.90
2023-02-05T07:17:29.296Z,6.80
2023-02-05T07:19:56.016Z,6.80
2023-02-05T07:22:23.002Z,6.80
2023-02-05T07:24:49.663Z,6.80
2023-02-05T07:27:16.768Z,6.80
2023-02-05T07:29:44.555Z,6.80
2023-02-05T07:32:11.320Z,6.80
2023-02-05T07:34:38.326Z,6.80
2023-02-05T07:37:05.309Z,6.80
2023-02-05T07:39:33.395Z,6.80
2023-02-05T07:42:00.783Z,6.80
2023-02-05T07:44:27.690Z,6.80
2023-02-05T07:46:54.816Z,6.80
2023-02-05T07:49:22.053Z,6.80
2023-02-05T07:51:48.893Z,6.80
2023-02-05T07:54:15.895Z,6.80
2023-02-05T07:56:42.950Z,6.80
2023-02-05T07:59:10.117Z,6.80
2023-02-05T08:01:36.701Z,6.90
2023-02-05T08:04:03.730Z,6.90
2023-02-05T08:06:30.861Z,6.80
2023-02-05T08:08:57.742Z,6.90
2023-02-05T08:11:24.436Z,6.90
2023-02-05T08:13:51.398Z,7.00
2023-02-05T08:16:18.191Z,7.00
2023-02-05T08:18:49.752Z,7.00
2023-02-05T08:21:17.270Z,7.10
2023-02-05T08:23:44.216Z,7.20
2023-02-05T08:26:11.968Z,7.20
2023-02-05T08:28:38.693Z,7.10
2023-02-05T08:31:12.474Z,7.00
2023-02-05T08:33:39.543Z,7.10
2023-02-05T08:36:06.946Z,7.20
2023-02-05T08:38:33.795Z,7.20
2023-02-05T08:41:04.427Z,7.20
2023-02-05T08:43:31.156Z,7.20
2023-02-05T08:45:57.857Z,7.20
2023-02-05T08:48:24.842Z,7.20
2023-02-05T08:50:51.493Z,7.20
2023-02-05T08:53:18.160Z,7.30
2023-02-05T08:55:46.066Z,7.30
2023-02-05T08:58:13.053Z,7.30
2023-02-05T09:00:40.112Z,7.30
2023-02-05T09:03:07.130Z,7.20
2023-02-05T09:05:34.102Z,7.30
2023-02-05T09:08:01.223Z,7.30
2023-02-05T09:10:27.952Z,7.30
2023-02-05T09:12:55.773Z,7.40
2023-02-05T09:15:22.791Z,7.40
2023-02-05T09:17:49.458Z,7.50
2023-02-05T09:20:16.245Z,7.40
2023-02-05T09:22:43.236Z,7.50
2023-02-05T09:25:10.324Z,7.50
2023-02-05T09:27:37.192Z,7.50
2023-02-05T09:30:04.600Z,7.70
2023-02-05T09:32:31.286Z,7.80
2023-02-05T09:34:57.955Z,8.00
2023-02-05T09:37:24.620Z,7.90
2023-02-05T09:42:57.118Z,7.80
2023-02-05T09:45:39.252Z,7.80
2023-02-05T09:48:22.604Z,7.80
2023-02-05T09:50:49.682Z,7.80
2023-02-05T09:53:18.955Z,7.80
2023-02-05T09:55:46.328Z,7.60
2023-02-05T09:58:31.837Z,7.70
2023-02-05T10:01:13.028Z,7.60
2023-02-05T10:03:44.263Z,7.50
2023-02-05T10:06:11.254Z,7.50
2023-02-05T10:08:38.092Z,7.40
2023-02-05T10:11:06.824Z,7.40
2023-02-05T10:13:35.577Z,7.30
2023-02-05T10:16:25.121Z,7.30
2023-02-05T10:18:52.478Z,7.30
2023-02-05T10:21:42.058Z,7.30
2023-02-05T10:24:17.754Z,7.60
2023-02-05T10:26:48.646Z,8.00
2023-02-05T10:29:15.584Z,8.20
2023-02-05T10:32:01.240Z,8.00
2023-02-05T10:34:28.865Z,7.90
2023-02-05T10:36:55.534Z,7.80
2023-02-05T10:39:25.486Z,7.80
2023-02-05T10:42:01.295Z,7.90
2023-02-05T10:44:40.229Z,8.20
2023-02-05T10:47:12.401Z,8.50
2023-02-05T10:49:48.106Z,8.60
2023-02-05T10:52:15.879Z,8.30
2023-02-05T10:54:42.957Z,8.10
2023-02-05T10:57:12.022Z,8.20
2023-02-05T10:59:41.826Z,8.40
2023-02-05T11:02:09.637Z,8.70
2023-02-05T11:04:44.996Z,8.90
2023-02-05T11:07:13.196Z,9.00
2023-02-05T11:09:40.277Z,8.90
2023-02-05T11:12:17.751Z,8.80
2023-02-05T11:14:46.053Z,8.80
2023-02-05T11:17:15.453Z,9.30
2023-02-05T11:19:51.500Z,8.90
2023-02-05T11:22:37.597Z,8.80
2023-02-05T11:25:17.908Z,8.80
2023-02-05T11:27:50.766Z,9.60
2023-02-05T11:30:47.604Z,9.60
2023-02-05T11:33:29.792Z,9.80
2023-02-05T11:35:56.601Z,9.40
2023-02-05T11:38:34.594Z,8.90
2023-02-05T11:41:05.559Z,8.60
2023-02-05T11:43:34.541Z,8.40
2023-02-05T11:46:03.397Z,8.50
2023-02-05T11:48:34.360Z,8.50
2023-02-05T11:51:02.051Z,9.30
2023-02-05T11:53:29.430Z,10.10
2023-02-05T11:56:00.528Z,9.90
2023-02-05T11:58:36.489Z,10.20
2023-02-05T12:01:05.408Z,10.20
2023-02-05T12:03:34.850Z,10.10
2023-02-05T12:06:23.232Z,10.70
2023-02-05T12:08:53.323Z,10.70
2023-02-05T12:11:29.364Z,9.90
2023-02-05T12:14:19.829Z,9.30
2023-02-05T12:17:12.787Z,8.90
2023-02-05T12:19:45.439Z,9.30
2023-02-05T12:22:30.528Z,9.20
2023-02-05T12:25:03.672Z,9.00
2023-02-05T12:27:40.855Z,9.40
2023-02-05T12:30:20.483Z,10.40
2023-02-05T12:33:01.040Z,10.50
2023-02-05T12:35:47.264Z,11.20
2023-02-05T12:38:33.018Z,11.30
2023-02-05T12:41:05.866Z,10.10
2023-02-05T12:43:32.683Z,9.60
2023-02-05T12:46:13.257Z,9.60
2023-02-05T12:48:40.800Z,9.50
2023-02-05T12:51:30.138Z,10.10
2023-02-05T12:53:57.092Z,10.50
2023-02-05T12:56:42.528Z,9.70
2023-02-05T12:59:35.870Z,9.50
2023-02-05T13:02:02.554Z,9.30
2023-02-05T13:04:37.906Z,9.10
2023-02-05T13:07:31.266Z,9.30
2023-02-05T13:10:28.417Z,9.30
2023-02-05T13:12:59.139Z,9.30
2023-02-05T13:15:31.337Z,9.50
2023-02-05T13:18:11.853Z,9.80
2023-02-05T13:20:59.375Z,10.00
2023-02-05T13:23:45.516Z,10.40
2023-02-05T13:26:33.213Z,10.50
2023-02-05T13:29:03.484Z,10.60
2023-02-05T13:31:38.551Z,11.50
2023-02-05T13:34:12.721Z,11.70
2023-02-05T13:36:51.882Z,11.10
2023-02-05T13:39:24.301Z,10.50
2023-02-05T13:42:12.125Z,11.00
2023-02-05T13:44:42.523Z,11.40
2023-02-05T13:47:21.468Z,11.60
2023-02-05T13:50:06.873Z,10.90
2023-02-05T13:52:41.155Z,10.20
2023-02-05T13:55:20.402Z,9.60
2023-02-05T13:58:06.072Z,9.20
2023-02-05T14:00:33.133Z,9.00
2023-02-05T14:03:05.546Z,8.90
2023-02-05T14:05:36.014Z,9.10
2023-02-05T14:08:04.007Z,9.20
2023-02-05T14:10:32.427Z,9.20
2023-02-05T14:13:22.238Z,9.20
2023-02-05T14:15:49.147Z,9.00
2023-02-05T14:18:37.217Z,8.80
2023-02-05T14:21:24.009Z,9.00
2023-02-05T14:23:50.775Z,9.10
2023-02-05T14:26:18.089Z,9.10
2023-02-05T14:28:47.450Z,9.20
2023-02-05T14:31:46.879Z,9.10
2023-02-05T14:34:44.679Z,9.10
2023-02-05T14:37:25.732Z,8.90
2023-02-05T14:39:54.971Z,8.60
2023-02-05T14:42:22.027Z,8.70
2023-02-05T14:44:54.388Z,9.00
2023-02-05T14:47:21.069Z,8.80
2023-02-05T14:49:49.447Z,8.80
2023-02-05T14:52:20.005Z,8.60
2023-02-05T14:54:54.417Z,8.60
2023-02-05T14:57:23.513Z,8.60
2023-02-05T14:59:50.207Z,8.70
2023-02-05T15:02:35.682Z,8.70
2023-02-05T15:05:04.208Z,8.50
2023-02-05T15:07:31.420Z,8.50
2023-02-05T15:10:02.472Z,8.50
2023-02-05T15:12:55.619Z,8.40
2023-02-05T15:15:33.014Z,8.40
2023-02-05T15:18:20.447Z,8.30
2023-02-05T15:20:49.246Z,8.30
2023-02-05T15:23:19.590Z,8.20
2023-02-05T15:25:52.861Z,8.20
2023-02-05T15:28:55.359Z,8.20
2023-02-05T15:31:36.244Z,8.10
2023-02-05T15:34:28.611Z,8.00
2023-02-05T15:37:01.883Z,8.00
2023-02-05T15:39:28.777Z,8.00
2023-02-05T15:41:58.504Z,8.00
2023-02-05T15:44:33.100Z,7.90
2023-02-05T15:47:05.747Z,7.90
2023-02-05T15:49:35.990Z,7.80
2023-02-05T15:52:03.462Z,7.80
2023-02-05T15:54:31.762Z,7.70
2023-02-05T15:56:58.841Z,7.70
2023-02-05T15:59:27.861Z,7.70
2023-02-05T16:02:03.077Z,7.70
2023-02-05T16:04:29.973Z,7.60
2023-02-05T16:06:58.025Z,7.60
2023-02-05T16:09:26.247Z,7.60
2023-02-05T16:11:53.121Z,7.50
2023-02-05T16:14:24.211Z,7.40
2023-02-05T16:17:09.310Z,7.40
2023-02-05T16:19:35.954Z,7.30
2023-02-05T16:22:14.782Z,7.30
2023-02-05T16:24:42.194Z,7.30
2023-02-05T16:27:11.801Z,7.20
2023-02-05T16:29:48.061Z,7.20
2023-02-05T16:32:34.013Z,7.10
2023-02-05T16:35:02.129Z,7.00
2023-02-05T16:37:30.492Z,7.10
2023-02-05T16:39:58.283Z,7.00
2023-02-05T16:42:38.988Z,7.00
2023-02-05T16:45:05.839Z,7.00
2023-02-05T16:47:32.485Z,6.90
2023-02-05T16:49:59.230Z,6.90
2023-02-05T16:52:31.063Z,6.80
2023-02-05T16:54:58.582Z,6.70
2023-02-05T16:57:28.368Z,6.70
2023-02-05T16:59:57.087Z,6.70
2023-02-05T17:02:29.641Z,6.70
2023-02-05T17:04:57.714Z,6.70
2023-02-05T17:07:24.480Z,6.60
2023-02-05T17:09:51.527Z,6.60
2023-02-05T17:12:27.637Z,6.60
2023-02-05T17:14:54.696Z,6.60
2023-02-05T17:17:21.831Z,6.60
2023-02-05T17:20:05.815Z,6.50
2023-02-05T17:22:34.447Z,6.50
2023-02-05T17:25:05.704Z,6.50
2023-02-05T17:27:39.345Z,6.50
2023-02-05T17:30:10.489Z,6.40
2023-02-05T17:32:37.560Z,6.40
2023-02-05T17:35:12.380Z,6.40
2023-02-05T17:37:39.412Z,6.30
2023-02-05T17:40:06.623Z,6.20
2023-02-05T17:42:33.534Z,6.20
2023-02-05T17:45:00.536Z,6.20
2023-02-05T17:47:27.234Z,6.20
2023-02-05T17:49:54.680Z,6.20
2023-02-05T17:52:21.710Z,6.20
2023-02-05T17:54:48.769Z,6.20
2023-02-05T17:57:18.069Z,6.10
2023-02-05T17:59:45.044Z,6.10
2023-02-05T18:02:12.652Z,6.00
2023-02-05T18:04:39.828Z,6.00
2023-02-05T18:07:20.089Z,5.90
2023-02-05T18:09:47.067Z,5.90
2023-02-05T18:12:14.075Z,5.90
2023-02-05T18:14:41.120Z,6.00
2023-02-05T18:17:08.184Z,6.00
2023-02-05T18:19:35.270Z,5.90
2023-02-05T18:22:02.252Z,5.90
2023-02-05T18:24:29.463Z,5.90
2023-02-05T18:26:57.017Z,5.90
2023-02-05T18:29:23.701Z,5.80
2023-02-05T18:31:52.813Z,5.80
2023-02-05T18:34:19.580Z,5.80
2023-02-05T18:36:46.658Z,5.70
2023-02-05T18:39:13.606Z,5.70
2023-02-05T18:41:40.899Z,5.60
2023-02-05T18:44:08.451Z,5.60
2023-02-05T18:46:35.419Z,5.60
2023-02-05T18:49:02.280Z,5.60
2023-02-05T18:51:29.446Z,5.70
2023-02-05T18:53:58.800Z,5.60
2023-02-05T18:56:27.063Z,5.60
2023-02-05T18:59:01.003Z,5.50
2023-02-05T19:01:29.288Z,5.60
2023-02-05T19:03:57.279Z,5.50
2023-02-05T19:06:24.258Z,5.40
2023-02-05T19:08:50.965Z,5.50
2023-02-05T19:11:22.924Z,5.40
2023-02-05T19:14:04.315Z,5.40
2023-02-05T19:16:32.441Z,5.30
2023-02-05T19:18:59.364Z,5.20
2023-02-05T19:21:29.079Z,5.20
2023-02-05T19:23:56.951Z,5.20
2023-02-05T19:26:25.026Z,5.10
2023-02-05T19:28:52.939Z,5.10
2023-02-05T19:31:19.847Z,5.20
2023-02-05T19:33:46.911Z,5.20
2023-02-05T19:36:13.888Z,5.20
2023-02-05T19:38:41.455Z,5.10
2023-02-05T19:41:15.200Z,5.10
2023-02-05T19:43:50.391Z,5.10
2023-02-05T19:46:18.328Z,5.00
2023-02-05T19:48:45.153Z,5.00
2023-02-05T19:51:12.714Z,5.10
2023-02-05T19:53:40.446Z,5.10
2023-02-05T19:56:08.879Z,5.20
2023-02-05T19:58:39.458Z,5.20
2023-02-05T20:01:17.348Z,5.20
2023-02-05T20:03:46.972Z,5.20
2023-02-05T20:06:15.094Z,5.10
2023-02-05T20:08:42.315Z,5.20
2023-02-05T20:11:09.031Z,5.20
2023-02-05T20:13:37.449Z,5.20
2023-02-05T20:16:06.556Z,5.20
2023-02-05T20:18:33.747Z,5.10
2023-02-05T20:21:00.472Z,5.10
2023-02-05T20:23:29.593Z,5.00
2023-02-05T20:26:03.834Z,5.00
2023-02-05T20:28:31.684Z,5.10
2023-02-05T20:31:17.646Z,5.10
2023-02-05T20:33:44.439Z,5.00
2023-02-05T20:36:12.219Z,5.10
2023-02-05T20:38:39.921Z,5.00
2023-02-05T20:41:13.807Z,5.00
2023-02-05T20:43:40.764Z,4.90
2023-02-05T20:46:07.963Z,4.90
2023-02-05T20:48:37.302Z,4.80
2023-02-05T20:51:05.424Z,4.80
2023-02-05T20:53:32.267Z,4.80
2023-02-05T20:56:03.195Z,4.70
2023-02-05T20:58:31.078Z,4.70
2023-02-05T21:01:04.949Z,4.70
2023-02-05T21:03:31.874Z,4.70
2023-02-05T21:05:58.959Z,4.80
2023-02-05T21:08:26.002Z,4.80
2023-02-05T21:10:52.998Z,4.60
2023-02-05T21:13:19.684Z,4.60
2023-02-05T21:15:54.121Z,4.50
2023-02-05T21:18:21.659Z,4.50
2023-02-05T21:20:48.672Z,4.50
2023-02-05T21:23:15.999Z,4.50
2023-02-05T21:25:42.873Z,4.40
2023-02-05T21:28:09.844Z,4.40
2023-02-05T21:30:37.253Z,4.30
2023-02-05T21:33:04.303Z,4.30
2023-02-05T21:35:31.426Z,4.30
2023-02-05T21:37:58.367Z,4.30
2023-02-05T21:40:25.392Z,4.30
2023-02-05T21:42:52.429Z,4.30
2023-02-05T21:45:19.458Z,4.30
2023-02-05T21:47:46.128Z,4.30
2023-02-05T21:50:13.387Z,4.30
2023-02-05T21:52:40.254Z,4.30
2023-02-05T21:55:07.357Z,4.40
2023-02-05T21:57:34.273Z,4.40
2023-02-05T22:00:03.159Z,4.30
2023-02-05T22:02:30.038Z,4.30
2023-02-05T22:04:56.862Z,4.30
2023-02-05T22:07:24.645Z,4.30
2023-02-05T22:09:51.578Z,4.40
2023-02-05T22:12:18.391Z,4.30
2023-02-05T22:14:45.250Z,4.30
2023-02-05T22:17:11.898Z,4.30
2023-02-05T22:19:38.524Z,4.20
2023-02-05T22:22:05.208Z,4.10
2023-02-05T22:24:32.256Z,4.00
2023-02-05T22:26:59.333Z,4.00
2023-02-05T22:29:26.088Z,3.90
2023-02-05T22:31:54.137Z,3.90
2023-02-05T22:34:21.359Z,3.90
2023-02-05T22:36:48.334Z,3.90
2023-02-05T22:39:15.369Z,4.00
2023-02-05T22:41:42.812Z,4.10
2023-02-05T22:44:10.561Z,4.00
2023-02-05T22:46:38.926Z,3.90
2023-02-05T22:49:06.018Z,3.80
2023-02-05T22:51:34.202Z,3.80
2023-02-05T22:54:01.424Z,3.80
2023-02-05T22:56:28.683Z,3.70
2023-02-05T22:58:55.664Z,3.70
2023-02-05T23:01:26.290Z,3.90
2023-02-05T23:03:53.706Z,3.90
2023-02-05T23:06:28.021Z,4.10
2023-02-05T23:09:01.759Z,4.10
2023-02-05T23:11:29.522Z,4.30
2023-02-05T23:13:57.078Z,4.30
2023-02-05T23:16:25.434Z,4.20
2023-02-05T23:18:53.273Z,4.00
2023-02-05T23:21:21.827Z,3.90
2023-02-05T23:23:49.896Z,3.60
2023-02-05T23:26:18.254Z,3.80
2023-02-05T23:28:45.356Z,3.90
2023-02-05T23:31:12.292Z,4.20
2023-02-05T23:33:39.303Z,4.20
2023-02-05T23:36:07.346Z,4.20
2023-02-05T23:38:34.420Z,4.10
2023-02-05T23:41:01.545Z,4.30
2023-02-05T23:43:28.583Z,4.50
2023-02-05T23:45:55.579Z,4.30
2023-02-05T23:48:22.641Z,4.10
2023-02-05T23:50:50.560Z,4.10
2023-02-05T23:53:17.602Z,4.00
2023-02-05T23:55:44.580Z,4.10
2023-02-05T23:58:11.691Z,4.10
